createdAt,value
2022-12-24T00:01:33.688Z,100903.78
2022-12-24T00:04:01.852Z,100846.94
2022-12-24T00:06:30.619Z,100903.72
2022-12-24T00:08:58.726Z,100894.91
2022-12-24T00:11:26.589Z,100913.03
2022-12-24T00:13:54.353Z,100916.56
2022-12-24T00:16:22.268Z,100901.44
2022-12-24T00:18:50.194Z,100819.66
2022-12-24T00:21:18.316Z,100932.63
2022-12-24T00:23:46.021Z,100892.25
2022-12-24T00:26:14.625Z,100909.88
2022-12-24T00:28:42.563Z,100893.06
2022-12-24T00:31:14.022Z,100920.44
2022-12-24T00:33:41.899Z,100890.53
2022-12-24T00:36:10.380Z,100877.13
2022-12-24T00:38:38.579Z,100921.50
2022-12-24T00:41:25.107Z,100911.41
2022-12-24T00:44:00.667Z,100923.94
2022-12-24T00:46:30.775Z,100913.88
2022-12-24T00:48:58.661Z,100896.88
2022-12-24T00:51:27.055Z,100892.31
2022-12-24T00:53:55.779Z,100918.81
2022-12-24T00:56:23.863Z,100912.09
2022-12-24T00:58:52.422Z,100914.19
2022-12-24T01:01:22.247Z,100850.50
2022-12-24T01:03:51.527Z,100916.41
2022-12-24T01:06:22.174Z,100887.97
2022-12-24T01:08:52.949Z,100903.81
2022-12-24T01:11:21.142Z,100883.72
2022-12-24T01:13:49.208Z,100918.38
2022-12-24T01:16:20.336Z,100922.66
2022-12-24T01:18:48.473Z,100910.47
2022-12-24T01:21:17.196Z,100923.78
2022-12-24T01:23:45.203Z,100927.88
2022-12-24T01:26:13.155Z,100822.50
2022-12-24T01:28:42.111Z,100880.50
2022-12-24T01:31:19.629Z,100871.81
2022-12-24T01:33:49.301Z,100931.78
2022-12-24T01:36:17.448Z,100894.34
2022-12-24T01:38:45.525Z,100868.09
2022-12-24T01:41:41.808Z,100906.06
2022-12-24T01:44:36.907Z,100919.31
2022-12-24T01:47:30.314Z,100922.84
2022-12-24T01:50:02.153Z,100844.88
2022-12-24T01:52:36.737Z,100868.91
2022-12-24T01:55:10.462Z,100898.78
2022-12-24T01:57:55.255Z,100928.81
2022-12-24T02:00:23.502Z,100914.44
2022-12-24T02:02:53.754Z,100872.16
2022-12-24T02:05:40.629Z,100931.53
2022-12-24T02:08:09.145Z,100921.28
2022-12-24T02:10:37.598Z,100927.78
2022-12-24T02:13:06.608Z,100931.63
2022-12-24T02:15:43.086Z,100905.84
2022-12-24T02:18:25.019Z,100914.19
2022-12-24T02:21:11.302Z,100928.00
2022-12-24T02:23:48.664Z,100933.75
2022-12-24T02:26:19.870Z,100860.09
2022-12-24T02:29:05.955Z,100933.47
2022-12-24T02:31:43.605Z,100923.44
2022-12-24T02:34:25.629Z,100908.28
2022-12-24T02:37:14.255Z,100897.66
2022-12-24T02:39:51.859Z,100864.94
2022-12-24T02:42:27.379Z,100931.63
2022-12-24T02:45:06.307Z,100928.59
2022-12-24T02:47:35.571Z,100896.34
2022-12-24T02:50:07.784Z,100924.25
2022-12-24T02:52:37.531Z,100920.72
2022-12-24T02:55:13.905Z,100905.78
2022-12-24T02:58:00.114Z,100908.44
2022-12-24T03:00:36.640Z,100892.81
2022-12-24T03:03:45.821Z,100914.19
2022-12-24T03:06:42.147Z,100889.03
2022-12-24T03:09:33.989Z,100923.28
2022-12-24T03:12:12.413Z,100908.06
2022-12-24T03:14:42.355Z,100898.28
2022-12-24T03:17:11.005Z,100902.09
2022-12-24T03:19:39.601Z,100931.97
2022-12-24T03:22:11.992Z,100896.88
2022-12-24T03:24:40.258Z,100913.78
2022-12-24T03:27:11.071Z,100900.22
2022-12-24T03:29:41.614Z,100920.00
2022-12-24T03:32:09.769Z,100869.38
2022-12-24T03:34:37.674Z,100833.34
2022-12-24T03:37:05.737Z,100855.88
2022-12-24T03:39:33.711Z,100913.50
2022-12-24T03:42:02.987Z,100915.94
2022-12-24T03:44:31.107Z,100866.69
2022-12-24T03:46:58.956Z,100895.38
2022-12-24T03:49:26.667Z,100896.53
2022-12-24T03:51:54.467Z,100917.88
2022-12-24T03:54:22.427Z,100858.00
2022-12-24T03:56:50.283Z,100875.41
2022-12-24T03:59:18.364Z,100869.19
2022-12-24T04:01:46.388Z,100900.16
2022-12-24T04:04:14.421Z,100887.34
2022-12-24T04:06:42.368Z,100916.88
2022-12-24T04:09:11.852Z,100897.84
2022-12-24T04:11:39.655Z,100867.25
2022-12-24T04:14:07.380Z,100861.53
2022-12-24T04:16:35.223Z,100901.13
2022-12-24T04:19:03.149Z,100917.31
2022-12-24T04:21:30.795Z,100861.78
2022-12-24T04:23:59.126Z,100865.53
2022-12-24T04:26:26.858Z,100908.66
2022-12-24T04:28:54.613Z,100867.25
2022-12-24T04:31:22.575Z,100897.59
2022-12-24T04:33:52.654Z,100838.50
2022-12-24T04:36:20.777Z,100920.69
2022-12-24T04:38:49.263Z,100880.88
2022-12-24T04:41:24.182Z,100935.06
2022-12-24T04:43:54.551Z,100942.19
2022-12-24T04:46:25.452Z,100934.03
2022-12-24T04:48:54.515Z,100858.44
2022-12-24T04:51:23.540Z,100943.31
2022-12-24T04:53:51.848Z,100922.13
2022-12-24T04:56:29.326Z,100889.59
2022-12-24T04:58:57.744Z,100892.41
2022-12-24T05:01:28.567Z,100883.69
2022-12-24T05:03:56.875Z,100895.94
2022-12-24T05:06:31.733Z,100839.28
2022-12-24T05:09:00.647Z,100925.72
2022-12-24T05:11:28.903Z,100916.75
2022-12-24T05:13:57.037Z,100841.72
2022-12-24T05:16:26.582Z,100928.63
2022-12-24T05:18:56.852Z,100895.34
2022-12-24T05:21:27.161Z,100924.84
2022-12-24T05:24:13.442Z,100919.41
2022-12-24T05:26:51.869Z,100898.44
2022-12-24T05:29:20.065Z,100857.00
2022-12-24T05:31:48.155Z,100889.44
2022-12-24T05:34:17.482Z,100884.28
2022-12-24T05:36:45.532Z,100860.03
2022-12-24T05:39:18.413Z,100877.59
2022-12-24T05:41:48.024Z,100871.09
2022-12-24T05:44:17.747Z,100898.59
2022-12-24T05:46:45.731Z,100903.75
2022-12-24T05:49:14.722Z,100858.81
2022-12-24T05:51:42.715Z,100900.03
2022-12-24T05:54:11.967Z,100894.06
2022-12-24T05:56:39.950Z,100874.22
2022-12-24T05:59:07.956Z,100892.63
2022-12-24T06:01:36.362Z,100883.34
2022-12-24T06:04:04.401Z,100872.69
2022-12-24T06:06:33.284Z,100880.88
2022-12-24T06:09:01.597Z,100851.09
2022-12-24T06:11:29.531Z,100860.66
2022-12-24T06:13:57.642Z,100812.38
2022-12-24T06:16:26.259Z,100870.84
2022-12-24T06:18:54.932Z,100882.56
2022-12-24T06:21:24.388Z,100780.66
2022-12-24T06:23:52.220Z,100771.38
2022-12-24T06:26:22.904Z,100756.22
2022-12-24T06:28:52.320Z,100852.38
2022-12-24T06:31:22.755Z,100851.50
2022-12-24T06:33:53.556Z,100836.53
2022-12-24T06:36:24.158Z,100845.22
2022-12-24T06:38:53.943Z,100846.06
2022-12-24T06:41:22.609Z,100846.56
2022-12-24T06:43:53.176Z,100842.75
2022-12-24T06:46:22.149Z,100835.69
2022-12-24T06:48:50.058Z,100834.88
2022-12-24T06:51:20.273Z,100805.72
2022-12-24T06:53:50.953Z,100840.03
2022-12-24T06:56:20.477Z,100840.84
2022-12-24T06:58:48.490Z,100828.31
2022-12-24T07:01:18.304Z,100822.91
2022-12-24T07:03:46.480Z,100812.28
2022-12-24T07:06:27.025Z,100815.81
2022-12-24T07:08:55.432Z,100821.56
2022-12-24T07:11:25.282Z,100813.78
2022-12-24T07:13:53.314Z,100814.84
2022-12-24T07:16:22.042Z,100791.88
2022-12-24T07:18:49.873Z,100826.06
2022-12-24T07:21:17.640Z,100855.44
2022-12-24T07:23:45.439Z,100873.88
2022-12-24T07:26:13.557Z,100871.31
2022-12-24T07:28:41.383Z,100891.28
2022-12-24T07:31:09.509Z,100890.19
2022-12-24T07:33:37.522Z,100843.53
2022-12-24T07:36:07.858Z,100898.88
2022-12-24T07:38:36.159Z,100894.88
2022-12-24T07:41:04.062Z,100851.53
2022-12-24T07:43:33.719Z,100903.81
2022-12-24T07:46:01.461Z,100910.09
2022-12-24T07:48:30.786Z,100906.25
2022-12-24T07:50:59.649Z,100917.97
2022-12-24T07:53:28.972Z,100846.41
2022-12-24T07:55:57.101Z,100749.81
2022-12-24T07:58:26.047Z,100927.47
2022-12-24T08:01:01.033Z,100894.97
2022-12-24T08:03:29.129Z,100928.28
2022-12-24T08:05:58.692Z,100839.72
2022-12-24T08:08:26.900Z,100907.50
2022-12-24T08:11:00.364Z,100934.28
2022-12-24T08:13:28.386Z,100871.88
2022-12-24T08:15:56.361Z,100777.66
2022-12-24T08:18:25.890Z,100838.28
2022-12-24T08:20:57.312Z,100893.91
2022-12-24T08:23:25.971Z,100947.81
2022-12-24T08:25:54.461Z,100942.34
2022-12-24T08:28:22.294Z,100942.88
2022-12-24T08:30:51.809Z,100948.31
2022-12-24T08:33:20.258Z,100861.03
2022-12-24T08:35:49.783Z,100890.34
2022-12-24T08:38:17.973Z,100880.00
2022-12-24T08:40:49.505Z,100885.72
2022-12-24T08:43:18.304Z,100949.31
2022-12-24T08:45:49.390Z,100874.16
2022-12-24T08:48:18.107Z,100886.81
2022-12-24T08:50:46.327Z,100755.91
2022-12-24T08:53:14.649Z,100892.44
2022-12-24T08:55:42.739Z,100957.47
2022-12-24T08:58:11.171Z,100823.13
2022-12-24T09:00:39.321Z,100878.34
2022-12-24T09:03:07.274Z,100867.75
2022-12-24T09:05:35.026Z,100965.59
2022-12-24T09:08:02.804Z,100883.75
2022-12-24T09:10:30.569Z,100952.22
2022-12-24T09:13:00.107Z,100974.00
2022-12-24T09:15:28.231Z,100805.94
2022-12-24T09:17:56.374Z,100830.09
2022-12-24T09:20:28.525Z,100837.19
2022-12-24T09:22:57.868Z,100940.63
2022-12-24T09:25:26.748Z,100947.13
2022-12-24T09:27:54.797Z,100926.09
2022-12-24T09:30:22.961Z,100876.41
2022-12-24T09:32:52.073Z,100909.50
2022-12-24T09:35:21.742Z,100922.78
2022-12-24T09:38:03.227Z,100969.34
2022-12-24T09:40:39.375Z,100964.13
2022-12-24T09:43:17.611Z,100984.53
2022-12-24T09:46:15.500Z,100926.59
2022-12-24T09:48:51.399Z,100961.22
2022-12-24T09:51:32.164Z,100997.09
2022-12-24T09:54:16.074Z,100807.97
2022-12-24T09:56:46.279Z,100999.84
2022-12-24T09:59:18.194Z,100985.91
2022-12-24T10:01:46.979Z,100974.59
2022-12-24T10:04:17.953Z,100894.53
2022-12-24T10:06:52.806Z,100994.31
2022-12-24T10:09:49.755Z,100959.53
2022-12-24T10:12:36.768Z,100975.50
2022-12-24T10:15:24.721Z,100982.81
2022-12-24T10:17:53.116Z,100981.72
2022-12-24T10:20:42.111Z,100978.41
2022-12-24T10:23:19.837Z,100966.91
2022-12-24T10:26:05.083Z,100969.34
2022-12-24T10:28:38.751Z,100960.06
2022-12-24T10:31:08.295Z,100929.97
2022-12-24T10:33:50.045Z,100916.34
2022-12-24T10:36:21.680Z,100972.13
2022-12-24T10:38:49.764Z,100972.63
2022-12-24T10:41:17.683Z,100967.94
2022-12-24T10:43:46.979Z,100881.75
2022-12-24T10:46:33.151Z,100962.97
2022-12-24T10:49:04.846Z,100919.44
2022-12-24T10:51:59.034Z,100955.69
2022-12-24T10:54:29.459Z,100918.31
2022-12-24T10:57:02.794Z,100947.25
2022-12-24T10:59:39.839Z,100948.16
2022-12-24T11:02:34.413Z,100925.34
2022-12-24T11:05:25.478Z,100930.06
2022-12-24T11:08:18.229Z,100940.84
2022-12-24T11:11:11.640Z,100931.41
2022-12-24T11:13:57.365Z,100885.06
2022-12-24T11:16:33.864Z,100917.63
2022-12-24T11:19:04.576Z,100921.91
2022-12-24T11:21:40.643Z,100918.34
2022-12-24T11:24:20.543Z,100917.81
2022-12-24T11:26:49.089Z,100883.66
2022-12-24T11:29:16.993Z,100898.72
2022-12-24T11:31:46.149Z,100895.97
2022-12-24T11:34:25.311Z,100884.63
2022-12-24T11:36:57.152Z,100892.13
2022-12-24T11:39:26.175Z,100839.06
2022-12-24T11:41:54.612Z,100881.53
2022-12-24T11:44:28.340Z,100816.09
2022-12-24T11:47:00.046Z,100860.13
2022-12-24T11:49:30.925Z,100870.59
2022-12-24T11:52:11.995Z,100859.63
2022-12-24T11:54:46.164Z,100864.25
2022-12-24T11:57:17.864Z,100848.44
2022-12-24T11:59:48.883Z,100835.47
2022-12-24T12:02:29.317Z,100851.13
2022-12-24T12:05:17.561Z,100852.72
2022-12-24T12:07:50.447Z,100858.19
2022-12-24T12:10:25.466Z,100836.16
2022-12-24T12:13:05.587Z,100843.44
2022-12-24T12:15:42.082Z,100832.88
2022-12-24T12:18:16.871Z,100789.53
2022-12-24T12:21:02.510Z,100830.56
2022-12-24T12:23:44.295Z,100847.28
2022-12-24T12:26:24.586Z,100824.78
2022-12-24T12:29:20.623Z,100797.41
2022-12-24T12:31:53.282Z,100840.66
2022-12-24T12:34:41.219Z,100827.50
2022-12-24T12:37:15.500Z,100831.88
2022-12-24T12:39:44.151Z,100820.63
2022-12-24T12:42:34.646Z,100819.25
2022-12-24T12:45:11.541Z,100818.44
2022-12-24T12:48:05.505Z,100812.16
2022-12-24T12:50:56.904Z,100810.25
2022-12-24T12:53:31.976Z,100802.06
2022-12-24T12:56:25.920Z,100810.75
2022-12-24T12:59:05.479Z,100801.75
2022-12-24T13:01:42.242Z,100794.97
2022-12-24T13:04:31.142Z,100788.66
2022-12-24T13:07:14.152Z,100789.50
2022-12-24T13:10:10.163Z,100791.72
2022-12-24T13:12:47.751Z,100753.50
2022-12-24T13:15:40.476Z,100779.47
2022-12-24T13:18:20.367Z,100756.72
2022-12-24T13:20:50.627Z,100778.97
2022-12-24T13:23:23.019Z,100716.72
2022-12-24T13:25:53.968Z,100774.00
2022-12-24T13:28:24.700Z,100766.63
2022-12-24T13:31:15.034Z,100734.56
2022-12-24T13:33:43.008Z,100768.03
2022-12-24T13:36:19.159Z,100727.69
2022-12-24T13:38:49.807Z,100776.72
2022-12-24T13:41:39.982Z,100760.34
2022-12-24T13:44:13.276Z,100767.72
2022-12-24T13:47:14.828Z,100761.47
2022-12-24T13:49:45.379Z,100761.75
2022-12-24T13:52:14.486Z,100754.66
2022-12-24T13:54:49.420Z,100760.94
2022-12-24T13:57:38.345Z,100756.28
2022-12-24T14:00:21.292Z,100743.16
2022-12-24T14:02:56.007Z,100743.16
2022-12-24T14:05:35.620Z,100747.69
2022-12-24T14:08:10.010Z,100702.81
2022-12-24T14:10:59.797Z,100714.66
2022-12-24T14:13:40.871Z,100743.28
2022-12-24T14:16:26.227Z,100738.94
2022-12-24T14:19:22.167Z,100708.63
2022-12-24T14:21:59.598Z,100739.50
2022-12-24T14:24:35.267Z,100731.84
2022-12-24T14:27:24.504Z,100732.34
2022-12-24T14:30:04.613Z,100737.81
2022-12-24T14:32:41.980Z,100728.50
2022-12-24T14:35:18.818Z,100700.84
2022-12-24T14:37:50.615Z,100676.13
2022-12-24T14:40:22.815Z,100654.47
2022-12-24T14:43:00.918Z,100730.34
2022-12-24T14:46:03.521Z,100735.00
2022-12-24T14:48:55.457Z,100730.34
2022-12-24T14:51:36.282Z,100725.38
2022-12-24T14:54:32.937Z,100726.19
2022-12-24T14:57:28.002Z,100699.66
2022-12-24T15:00:00.423Z,100695.81
2022-12-24T15:02:43.532Z,100692.13
2022-12-24T15:05:28.681Z,100721.75
2022-12-24T15:08:00.693Z,100728.22
2022-12-24T15:10:41.925Z,100721.34
2022-12-24T15:13:40.779Z,100727.59
2022-12-24T15:16:30.021Z,100729.75
2022-12-24T15:19:03.146Z,100738.53
2022-12-24T15:21:33.425Z,100728.72
2022-12-24T15:24:01.398Z,100725.19
2022-12-24T15:26:37.597Z,100719.72
2022-12-24T15:29:21.259Z,100703.72
2022-12-24T15:32:05.909Z,100717.22
2022-12-24T15:34:43.346Z,100636.72
2022-12-24T15:37:15.075Z,100686.94
2022-12-24T15:39:43.686Z,100716.41
2022-12-24T15:42:19.400Z,100713.88
2022-12-24T15:45:01.740Z,100720.34
2022-12-24T15:47:38.596Z,100696.06
2022-12-24T15:50:25.298Z,100710.91
2022-12-24T15:53:20.421Z,100698.50
2022-12-24T15:55:46.174Z,100629.63
2022-12-24T15:58:29.931Z,100719.94
2022-12-24T16:01:18.037Z,100714.34
2022-12-24T16:03:49.387Z,100732.59
2022-12-24T16:06:18.392Z,100712.63
2022-12-24T16:08:46.960Z,100729.88
2022-12-24T16:11:19.676Z,100722.47
2022-12-24T16:14:21.085Z,100716.59
2022-12-24T16:16:50.709Z,100723.19
2022-12-24T16:19:23.182Z,100712.97
2022-12-24T16:21:57.444Z,100719.03
2022-12-24T16:24:29.095Z,100701.72
2022-12-24T16:26:59.412Z,100743.13
2022-12-24T16:29:27.816Z,100736.63
2022-12-24T16:31:59.115Z,100706.19
2022-12-24T16:34:31.031Z,100727.84
2022-12-24T16:37:01.956Z,100722.75
2022-12-24T16:39:32.933Z,100734.72
2022-12-24T16:42:21.706Z,100652.88
2022-12-24T16:44:52.885Z,100707.56
2022-12-24T16:47:41.775Z,100744.53
2022-12-24T16:50:16.322Z,100745.44
2022-12-24T16:52:44.895Z,100735.19
2022-12-24T16:55:19.288Z,100688.91
2022-12-24T16:57:47.120Z,100705.03
2022-12-24T17:00:18.722Z,100726.00
2022-12-24T17:02:48.388Z,100743.00
2022-12-24T17:05:18.214Z,100742.59
2022-12-24T17:07:47.474Z,100708.38
2022-12-24T17:10:15.593Z,100745.13
2022-12-24T17:12:44.676Z,100757.06
2022-12-24T17:15:12.893Z,100726.19
2022-12-24T17:17:41.145Z,100749.19
2022-12-24T17:20:09.459Z,100757.66
2022-12-24T17:22:37.536Z,100736.50
2022-12-24T17:25:06.585Z,100709.56
2022-12-24T17:27:34.717Z,100757.66
2022-12-24T17:30:03.120Z,100751.38
2022-12-24T17:32:31.211Z,100753.31
2022-12-24T17:35:00.216Z,100712.59
2022-12-24T17:37:28.495Z,100742.66
2022-12-24T17:39:56.813Z,100734.78
2022-12-24T17:42:24.585Z,100747.03
2022-12-24T17:44:52.305Z,100770.63
2022-12-24T17:47:20.153Z,100756.84
2022-12-24T17:49:49.694Z,100752.50
2022-12-24T17:52:18.646Z,100766.06
2022-12-24T17:54:46.534Z,100711.44
2022-12-24T17:57:14.530Z,100769.91
2022-12-24T17:59:42.719Z,100765.63
2022-12-24T18:02:13.120Z,100767.25
2022-12-24T18:04:44.660Z,100716.56
2022-12-24T18:07:13.609Z,100745.94
2022-12-24T18:09:45.145Z,100774.34
2022-12-24T18:12:14.347Z,100740.84
2022-12-24T18:14:42.126Z,100760.69
2022-12-24T18:17:10.136Z,100764.50
2022-12-24T18:19:37.855Z,100771.50
2022-12-24T18:22:05.571Z,100684.56
2022-12-24T18:24:34.968Z,100759.34
2022-12-24T18:27:04.311Z,100752.16
2022-12-24T18:29:32.244Z,100772.31
2022-12-24T18:32:00.137Z,100744.00
2022-12-24T18:34:28.248Z,100727.19
2022-12-24T18:36:56.665Z,100780.75
2022-12-24T18:39:24.380Z,100734.81
2022-12-24T18:41:52.524Z,100739.88
2022-12-24T18:44:25.171Z,100783.16
2022-12-24T18:46:54.168Z,100754.69
2022-12-24T18:49:22.021Z,100736.50
2022-12-24T18:51:49.900Z,100741.16
2022-12-24T18:54:17.680Z,100772.56
2022-12-24T18:56:45.660Z,100726.50
2022-12-24T18:59:13.654Z,100766.34
2022-12-24T19:01:44.232Z,100718.63
2022-12-24T19:04:15.185Z,100778.97
2022-12-24T19:06:50.755Z,100767.66
2022-12-24T19:09:21.637Z,100681.41
2022-12-24T19:11:49.766Z,100780.41
2022-12-24T19:14:20.460Z,100776.06
2022-12-24T19:16:49.823Z,100731.56
2022-12-24T19:19:18.879Z,100745.06
2022-12-24T19:21:46.705Z,100721.03
2022-12-24T19:24:14.845Z,100784.28
2022-12-24T19:26:42.640Z,100758.25
2022-12-24T19:29:10.697Z,100770.50
2022-12-24T19:31:38.848Z,100768.91
2022-12-24T19:34:07.200Z,100769.47
2022-12-24T19:36:36.730Z,100792.88
2022-12-24T19:39:04.731Z,100718.19
2022-12-24T19:41:33.155Z,100713.00
2022-12-24T19:44:02.375Z,100740.84
2022-12-24T19:46:33.319Z,100772.72
2022-12-24T19:49:07.918Z,100778.16
2022-12-24T19:51:39.066Z,100766.38
2022-12-24T19:54:14.988Z,100790.50
2022-12-24T19:56:46.491Z,100758.78
2022-12-24T19:59:14.298Z,100734.13
2022-12-24T20:01:42.334Z,100763.00
2022-12-24T20:04:10.754Z,100776.72
2022-12-24T20:06:39.491Z,100771.78
2022-12-24T20:09:08.724Z,100780.84
2022-12-24T20:11:36.519Z,100706.13
2022-12-24T20:16:36.122Z,100748.97
2022-12-24T20:19:06.883Z,100712.16
2022-12-24T20:21:38.222Z,100746.03
2022-12-24T20:24:07.204Z,100789.59
2022-12-24T20:26:36.517Z,100734.88
2022-12-24T20:29:12.434Z,100793.84
2022-12-24T20:31:42.933Z,100794.66
2022-12-24T20:34:11.558Z,100726.25
2022-12-24T20:36:39.648Z,100788.38
2022-12-24T20:39:08.019Z,100786.47
2022-12-24T20:41:37.590Z,100790.00
2022-12-24T20:44:05.944Z,100767.81
2022-12-24T20:46:34.506Z,100789.50
2022-12-24T20:49:03.845Z,100783.53
2022-12-24T20:51:31.647Z,100756.28
2022-12-24T20:54:01.855Z,100785.16
2022-12-24T20:56:31.149Z,100751.69
2022-12-24T20:59:02.222Z,100765.78
2022-12-24T21:01:30.881Z,100783.16
2022-12-24T21:04:04.584Z,100743.38
2022-12-24T21:06:36.858Z,100795.63
2022-12-24T21:09:06.621Z,100791.78
2022-12-24T21:11:48.413Z,100792.59
2022-12-24T21:14:24.939Z,100776.19
2022-12-24T21:16:54.493Z,100745.44
2022-12-24T21:19:25.770Z,100803.91
2022-12-24T21:21:53.699Z,100739.00
2022-12-24T21:24:21.453Z,100769.84
2022-12-24T21:26:49.481Z,100779.16
2022-12-24T21:29:17.866Z,100792.16
2022-12-24T21:31:46.224Z,100754.66
2022-12-24T21:34:14.221Z,100767.13
2022-12-24T21:36:42.804Z,100780.28
2022-12-24T21:39:10.592Z,100801.69
2022-12-24T21:41:38.289Z,100773.69
2022-12-24T21:44:05.934Z,100795.19
2022-12-24T21:46:34.021Z,100781.50
2022-12-24T21:49:20.900Z,100779.78
2022-12-24T21:51:51.516Z,100759.09
2022-12-24T21:54:23.530Z,100753.09
2022-12-24T21:57:11.515Z,100795.19
2022-12-24T21:59:40.616Z,100783.63
2022-12-24T22:02:15.725Z,100775.06
2022-12-24T22:04:44.638Z,100729.38
2022-12-24T22:07:46.732Z,100763.13
2022-12-24T22:10:33.536Z,100777.97
2022-12-24T22:13:06.533Z,100807.53
2022-12-24T22:15:35.924Z,100810.56
2022-12-24T22:18:03.813Z,100779.72
2022-12-24T22:20:31.814Z,100789.75
2022-12-24T22:23:09.953Z,100745.00
2022-12-24T22:25:39.622Z,100790.34
2022-12-24T22:28:08.076Z,100786.88
2022-12-24T22:30:42.038Z,100763.56
2022-12-24T22:33:11.432Z,100711.41
2022-12-24T22:35:40.492Z,100796.31
2022-12-24T22:40:41.083Z,100742.56
2022-12-24T22:43:09.040Z,100760.09
2022-12-24T22:45:39.197Z,100762.25
2022-12-24T22:48:08.288Z,100789.03
2022-12-24T22:50:36.491Z,100771.47
2022-12-24T22:53:04.342Z,100792.56
2022-12-24T22:55:32.128Z,100698.44
2022-12-24T22:58:00.505Z,100782.81
2022-12-24T23:00:55.892Z,100786.56
2022-12-24T23:03:25.497Z,100794.69
2022-12-24T23:06:06.809Z,100785.69
2022-12-24T23:08:38.072Z,100743.53
2022-12-24T23:11:14.486Z,100741.69
2022-12-24T23:14:04.079Z,100768.66
2022-12-24T23:16:34.034Z,100783.03
2022-12-24T23:19:04.707Z,100776.19
2022-12-24T23:21:33.198Z,100784.06
2022-12-24T23:24:02.142Z,100780.53
2022-12-24T23:26:30.281Z,100770.34
2022-12-24T23:28:58.975Z,100742.13
2022-12-24T23:31:27.318Z,100731.38
2022-12-24T23:33:55.029Z,100742.28
2022-12-24T23:36:23.293Z,100770.50
2022-12-24T23:38:53.713Z,100777.56
2022-12-24T23:41:22.456Z,100774.03
2022-12-24T23:43:50.236Z,100768.66
2022-12-24T23:46:19.889Z,100763.72
2022-12-24T23:48:49.322Z,100763.22
2022-12-24T23:51:19.785Z,100750.75
2022-12-24T23:53:49.300Z,100767.25
2022-12-24T23:56:17.076Z,100766.00
2022-12-24T23:58:47.409Z,100690.69
